Time;durP1;ratioP1;P1;durP2;ratioP2;P2;SDS_P1;SDS_P2;PMS_P1;PMS_P2;Temp;Humidity;BMP_temperature;BMP_pressure;BME280_temperature;BME280_humidity;BME280_pressure;Samples;Min_cycle;Max_cycle;Signal;HPM_P1;HPM_P2
2022/05/05 00:01:38;;;;;;;9.20;6.30;;;;;;;;;;5034620;28;20454;-67
2022/05/05 00:04:06;;;;;;;8.10;6.50;;;;;;;;;;5034658;28;20950;-67
2022/05/05 00:06:33;;;;;;;10.60;6.40;;;;;;;;;;5035275;28;20443;-67
2022/05/05 00:09:00;;;;;;;9.43;5.60;;;;;;;;;;5034817;28;20492;-67
2022/05/05 00:14:27;;;;;;;11.43;5.87;;;;;;;;;;5034680;28;20494;-68
2022/05/05 00:16:57;;;;;;;11.23;5.80;;;;;;;;;;5035087;28;20422;-69
2022/05/05 00:19:24;;;;;;;16.40;6.37;;;;;;;;;;5034677;28;20457;-68
2022/05/05 00:21:51;;;;;;;10.10;5.50;;;;;;;;;;5034212;28;20446;-68
2022/05/05 00:24:18;;;;;;;9.90;5.90;;;;;;;;;;5034528;28;20469;-68
2022/05/05 00:26:46;;;;;;;11.93;5.60;;;;;;;;;;5034817;28;20438;-67
2022/05/05 00:29:15;;;;;;;11.60;5.77;;;;;;;;;;5034129;28;20480;-68
2022/05/05 00:31:42;;;;;;;17.03;6.90;;;;;;;;;;5033095;28;20444;-68
2022/05/05 00:34:10;;;;;;;12.10;6.23;;;;;;;;;;5034399;28;20453;-68
2022/05/05 00:36:37;;;;;;;11.23;6.50;;;;;;;;;;5034295;28;20453;-70
2022/05/05 00:39:05;;;;;;;11.55;6.65;;;;;;;;;;5033945;28;20448;-68
2022/05/05 00:41:33;;;;;;;10.43;6.00;;;;;;;;;;5034222;28;20196;-68
2022/05/05 00:44:00;;;;;;;10.73;6.77;;;;;;;;;;5033920;28;20446;-68
2022/05/05 00:46:29;;;;;;;11.47;6.67;;;;;;;;;;5035065;28;20772;-68
2022/05/05 00:48:56;;;;;;;15.20;6.27;;;;;;;;;;5033965;28;20473;-68
2022/05/05 00:51:24;;;;;;;8.97;5.97;;;;;;;;;;5034055;28;20439;-67
2022/05/05 00:53:52;;;;;;;9.37;6.63;;;;;;;;;;5033810;28;20801;-70
2022/05/05 00:56:19;;;;;;;9.77;6.37;;;;;;;;;;5033711;28;20940;-67
2022/05/05 00:58:47;;;;;;;11.80;6.57;;;;;;;;;;5033557;28;21010;-67
2022/05/05 01:01:16;;;;;;;9.33;6.07;;;;;;;;;;5033637;28;20461;-67
2022/05/05 01:03:45;;;;;;;13.00;6.75;;;;;;;;;;5033968;28;20447;-69
2022/05/05 01:06:13;;;;;;;7.57;6.43;;;;;;;;;;5033622;28;20202;-67
2022/05/05 01:08:40;;;;;;;14.00;6.83;;;;;;;;;;5033872;28;20530;-69
2022/05/05 01:11:08;;;;;;;18.63;7.17;;;;;;;;;;5033540;28;20452;-67
2022/05/05 01:13:38;;;;;;;9.70;6.70;;;;;;;;;;5033378;28;20438;-67
2022/05/05 01:16:06;;;;;;;6.93;5.70;;;;;;;;;;5033457;28;20431;-67
2022/05/05 01:18:34;;;;;;;10.27;6.37;;;;;;;;;;5033620;28;20461;-67
2022/05/05 01:21:02;;;;;;;8.57;6.13;;;;;;;;;;5033406;28;20438;-69
2022/05/05 01:23:31;;;;;;;11.60;7.07;;;;;;;;;;5033666;28;20510;-69
2022/05/05 01:28:41;;;;;;;12.67;6.30;;;;;;;;;;5000185;28;20561;-68
2022/05/05 01:31:08;;;;;;;12.20;6.33;;;;;;;;;;5033641;28;20512;-68
2022/05/05 01:33:36;;;;;;;10.57;6.17;;;;;;;;;;5033749;28;20442;-69
2022/05/05 01:36:04;;;;;;;10.60;7.27;;;;;;;;;;5033872;28;20445;-70
2022/05/05 01:38:36;;;;;;;9.90;6.67;;;;;;;;;;5033120;28;20927;-68
2022/05/05 01:41:04;;;;;;;9.98;6.70;;;;;;;;;;5033539;28;20429;-68
2022/05/05 01:43:31;;;;;;;8.00;6.43;;;;;;;;;;5037104;28;20203;-68
2022/05/05 01:45:58;;;;;;;9.13;6.23;;;;;;;;;;5037307;28;20438;-68
2022/05/05 01:48:26;;;;;;;9.07;6.73;;;;;;;;;;5037061;28;20946;-68
2022/05/05 01:50:53;;;;;;;10.57;6.43;;;;;;;;;;5037211;28;20442;-69
2022/05/05 01:53:20;;;;;;;9.47;7.63;;;;;;;;;;5037460;28;20913;-68
2022/05/05 01:55:49;;;;;;;11.85;7.68;;;;;;;;;;5037642;28;20444;-68
2022/05/05 01:58:16;;;;;;;13.87;7.70;;;;;;;;;;5036958;28;20195;-68
2022/05/05 02:00:43;;;;;;;10.20;6.80;;;;;;;;;;5037795;28;20442;-68
2022/05/05 02:03:13;;;;;;;8.70;7.30;;;;;;;;;;5037420;28;20451;-68
2022/05/05 02:05:41;;;;;;;9.50;7.20;;;;;;;;;;5036982;28;20433;-70
2022/05/05 02:08:08;;;;;;;12.43;9.10;;;;;;;;;;5036784;28;20438;-68
2022/05/05 02:10:36;;;;;;;15.57;7.75;;;;;;;;;;5037031;28;20481;-68
2022/05/05 02:13:05;;;;;;;14.70;8.23;;;;;;;;;;5037029;28;20202;-69
2022/05/05 02:15:33;;;;;;;9.40;7.77;;;;;;;;;;5037008;28;20441;-68
2022/05/05 02:18:07;;;;;;;8.23;7.27;;;;;;;;;;5036887;28;20541;-69
2022/05/05 02:20:34;;;;;;;8.80;7.83;;;;;;;;;;5036709;28;20946;-68
2022/05/05 02:23:01;;;;;;;17.50;8.33;;;;;;;;;;5036545;28;20446;-70
2022/05/05 02:25:28;;;;;;;7.70;6.60;;;;;;;;;;5036897;28;20521;-68
2022/05/05 02:27:56;;;;;;;13.33;7.57;;;;;;;;;;5036692;28;20445;-68
2022/05/05 02:30:25;;;;;;;8.97;7.00;;;;;;;;;;5036600;28;20477;-68
2022/05/05 02:32:52;;;;;;;13.38;7.50;;;;;;;;;;5036896;28;20448;-68
2022/05/05 02:35:20;;;;;;;12.63;7.20;;;;;;;;;;5036570;28;20202;-68
2022/05/05 02:40:32;;;;;;;9.57;7.88;;;;;;;;;;5036819;28;20187;-68
2022/05/05 02:43:00;;;;;;;9.97;7.50;;;;;;;;;;5036919;28;20649;-68
2022/05/05 02:45:28;;;;;;;12.73;7.90;;;;;;;;;;5036109;28;20446;-69
2022/05/05 02:47:56;;;;;;;12.80;7.30;;;;;;;;;;5036408;28;20442;-69
2022/05/05 02:50:23;;;;;;;15.77;8.88;;;;;;;;;;5036272;28;20481;-68
2022/05/05 02:52:51;;;;;;;12.77;7.78;;;;;;;;;;5036165;28;20199;-69
2022/05/05 02:55:17;;;;;;;9.27;6.72;;;;;;;;;;5035293;28;20198;-68
2022/05/05 02:57:44;;;;;;;14.57;7.70;;;;;;;;;;5036296;28;20242;-68
2022/05/05 03:00:12;;;;;;;8.07;6.93;;;;;;;;;;5036091;28;20210;-68
2022/05/05 03:02:42;;;;;;;14.63;8.20;;;;;;;;;;5036171;28;20461;-69
2022/05/05 03:05:10;;;;;;;9.55;7.32;;;;;;;;;;5036156;28;20436;-69
2022/05/05 03:07:37;;;;;;;9.65;8.63;;;;;;;;;;5036077;28;20593;-69
2022/05/05 03:10:05;;;;;;;12.27;8.30;;;;;;;;;;5035857;28;20219;-70
2022/05/05 03:12:32;;;;;;;10.57;7.70;;;;;;;;;;5036455;28;20203;-69
2022/05/05 03:14:59;;;;;;;15.82;10.32;;;;;;;;;;5036095;28;20221;-70
2022/05/05 03:17:26;;;;;;;12.98;7.20;;;;;;;;;;5035917;28;20290;-69
2022/05/05 03:19:55;;;;;;;12.88;8.63;;;;;;;;;;5036029;28;20203;-69
2022/05/05 03:22:22;;;;;;;13.27;8.30;;;;;;;;;;5035800;28;20286;-69
2022/05/05 03:24:49;;;;;;;14.63;9.00;;;;;;;;;;5035365;28;20508;-68
2022/05/05 03:27:16;;;;;;;12.77;7.82;;;;;;;;;;5036220;28;20238;-69
2022/05/05 03:29:43;;;;;;;16.85;8.82;;;;;;;;;;5035182;28;20222;-69
2022/05/05 03:32:11;;;;;;;21.40;9.02;;;;;;;;;;5035394;28;20567;-69
2022/05/05 03:34:38;;;;;;;12.50;8.32;;;;;;;;;;5035196;28;20644;-68
2022/05/05 03:37:07;;;;;;;14.87;8.10;;;;;;;;;;5035514;28;20552;-68
2022/05/05 03:39:34;;;;;;;15.90;9.47;;;;;;;;;;5035358;28;20450;-68
2022/05/05 03:42:02;;;;;;;13.98;8.95;;;;;;;;;;5035462;28;20799;-68
2022/05/05 03:44:29;;;;;;;13.18;8.65;;;;;;;;;;5035024;28;20651;-68
2022/05/05 03:46:56;;;;;;;10.20;8.20;;;;;;;;;;5035241;28;20198;-68
2022/05/05 03:49:23;;;;;;;11.23;8.25;;;;;;;;;;5035526;28;20318;-68
2022/05/05 03:51:51;;;;;;;14.88;9.07;;;;;;;;;;5035239;28;20205;-68
2022/05/05 03:54:19;;;;;;;14.27;9.38;;;;;;;;;;5034664;28;20202;-68
2022/05/05 03:56:46;;;;;;;15.83;8.40;;;;;;;;;;5035188;28;20203;-67
2022/05/05 03:59:13;;;;;;;13.02;7.60;;;;;;;;;;5035095;28;20530;-68
2022/05/05 04:01:41;;;;;;;16.90;8.45;;;;;;;;;;5035673;28;20209;-68
2022/05/05 04:04:08;;;;;;;14.32;7.85;;;;;;;;;;5054299;28;20194;-68
2022/05/05 04:06:35;;;;;;;10.70;8.43;;;;;;;;;;5054301;28;20201;-68
2022/05/05 04:09:03;;;;;;;17.52;8.38;;;;;;;;;;5054807;28;20191;-67
2022/05/05 04:11:31;;;;;;;14.40;8.38;;;;;;;;;;5054309;28;20652;-68
2022/05/05 04:13:59;;;;;;;13.63;7.80;;;;;;;;;;5054765;28;20191;-68
2022/05/05 04:16:26;;;;;;;12.27;8.57;;;;;;;;;;5054582;28;20781;-68
2022/05/05 04:18:53;;;;;;;13.50;8.60;;;;;;;;;;5054631;28;20288;-68
2022/05/05 04:21:20;;;;;;;11.53;7.90;;;;;;;;;;5054715;28;20883;-68
2022/05/05 04:23:48;;;;;;;13.63;9.05;;;;;;;;;;5054140;28;20567;-68
2022/05/05 04:26:15;;;;;;;12.52;8.82;;;;;;;;;;5054122;28;20201;-68
2022/05/05 04:28:44;;;;;;;16.58;9.30;;;;;;;;;;5054652;28;20205;-68
2022/05/05 04:31:13;;;;;;;16.00;9.20;;;;;;;;;;5053784;28;20244;-68
2022/05/05 04:33:40;;;;;;;13.60;7.85;;;;;;;;;;5054203;28;20198;-68
2022/05/05 04:36:08;;;;;;;12.23;7.33;;;;;;;;;;5054259;28;20199;-67
2022/05/05 04:38:35;;;;;;;13.60;9.80;;;;;;;;;;5054284;28;20480;-68
2022/05/05 04:41:02;;;;;;;13.67;8.30;;;;;;;;;;5053790;28;20753;-67
2022/05/05 04:43:30;;;;;;;13.30;8.00;;;;;;;;;;5054197;28;20495;-67
2022/05/05 04:45:58;;;;;;;14.27;8.15;;;;;;;;;;5053757;28;20495;-68
2022/05/05 04:48:25;;;;;;;19.40;9.18;;;;;;;;;;5054146;28;20240;-68
2022/05/05 04:50:53;;;;;;;9.83;7.93;;;;;;;;;;5053533;28;20218;-68
2022/05/05 04:53:20;;;;;;;12.33;8.30;;;;;;;;;;5053579;28;20457;-68
2022/05/05 04:55:47;;;;;;;12.60;8.38;;;;;;;;;;5053965;28;20797;-68
2022/05/05 04:58:14;;;;;;;15.40;8.20;;;;;;;;;;5054123;28;20297;-69
2022/05/05 05:00:42;;;;;;;19.98;8.95;;;;;;;;;;5053888;28;20536;-68
2022/05/05 05:03:32;;;;;;;13.93;9.03;;;;;;;;;;5053760;28;20252;-67
2022/05/05 05:05:58;;;;;;;12.23;8.30;;;;;;;;;;5053376;28;20437;-68
2022/05/05 05:08:25;;;;;;;16.13;8.50;;;;;;;;;;5053914;28;20442;-68
2022/05/05 05:10:52;;;;;;;17.50;8.37;;;;;;;;;;5053233;28;20479;-67
2022/05/05 05:13:20;;;;;;;17.47;9.07;;;;;;;;;;5053531;28;20797;-70
2022/05/05 05:15:47;;;;;;;13.77;8.30;;;;;;;;;;5053853;28;20442;-69
2022/05/05 05:18:16;;;;;;;10.27;8.40;;;;;;;;;;5053091;28;20205;-65
2022/05/05 05:20:43;;;;;;;17.67;8.50;;;;;;;;;;5053488;28;20452;-72
2022/05/05 05:23:10;;;;;;;15.10;8.40;;;;;;;;;;5053268;28;20477;-64
2022/05/05 05:25:37;;;;;;;12.98;8.90;;;;;;;;;;5053186;28;20466;-65
2022/05/05 05:28:05;;;;;;;16.97;9.70;;;;;;;;;;5053539;28;20227;-65
2022/05/05 05:30:33;;;;;;;17.63;8.93;;;;;;;;;;5053571;28;20469;-65
2022/05/05 05:33:00;;;;;;;29.00;9.60;;;;;;;;;;5053123;28;20448;-63
2022/05/05 05:35:28;;;;;;;39.57;11.63;;;;;;;;;;5053061;28;20960;-64
2022/05/05 05:37:56;;;;;;;27.40;10.40;;;;;;;;;;5053044;28;20931;-63
2022/05/05 05:40:23;;;;;;;18.00;10.30;;;;;;;;;;5053719;28;20537;-63
2022/05/05 05:42:50;;;;;;;17.97;11.30;;;;;;;;;;5053266;28;20441;-63
2022/05/05 05:45:18;;;;;;;21.77;9.30;;;;;;;;;;5053388;28;20932;-63
2022/05/05 05:47:46;;;;;;;17.53;9.77;;;;;;;;;;5053310;28;20499;-63
2022/05/05 05:50:13;;;;;;;19.60;9.33;;;;;;;;;;5053652;28;20469;-63
2022/05/05 05:52:41;;;;;;;14.30;9.80;;;;;;;;;;5053175;28;20529;-64
2022/05/05 05:55:09;;;;;;;14.63;9.00;;;;;;;;;;5053220;28;20449;-63
2022/05/05 05:57:36;;;;;;;15.80;9.30;;;;;;;;;;5053162;28;20446;-63
2022/05/05 06:00:04;;;;;;;10.27;8.70;;;;;;;;;;5052839;28;20456;-63
2022/05/05 06:05:16;;;;;;;11.87;9.60;;;;;;;;;;5053196;28;20929;-63
2022/05/05 06:07:44;;;;;;;18.17;10.17;;;;;;;;;;5053077;28;20447;-63
2022/05/05 06:10:12;;;;;;;15.63;9.40;;;;;;;;;;5053065;28;20484;-63
2022/05/05 06:12:39;;;;;;;16.63;10.00;;;;;;;;;;5053212;28;20773;-63
2022/05/05 06:15:06;;;;;;;14.10;8.33;;;;;;;;;;5053083;28;20445;-64
2022/05/05 06:17:35;;;;;;;16.33;8.53;;;;;;;;;;5052977;28;20450;-63
2022/05/05 06:20:02;;;;;;;14.53;9.40;;;;;;;;;;5052705;28;20450;-63
2022/05/05 06:22:30;;;;;;;13.37;9.27;;;;;;;;;;5053023;28;20802;-64
2022/05/05 06:24:58;;;;;;;14.03;8.77;;;;;;;;;;5052661;28;20973;-63
2022/05/05 06:27:25;;;;;;;14.30;8.43;;;;;;;;;;5052990;28;20441;-64
2022/05/05 06:29:52;;;;;;;13.23;8.10;;;;;;;;;;5056378;28;20456;-64
2022/05/05 06:32:20;;;;;;;15.63;9.33;;;;;;;;;;5056271;28;20441;-65
2022/05/05 06:34:47;;;;;;;14.47;8.80;;;;;;;;;;5056793;28;20871;-64
2022/05/05 06:37:14;;;;;;;17.70;10.20;;;;;;;;;;5056921;28;20468;-65
2022/05/05 06:39:41;;;;;;;14.73;8.90;;;;;;;;;;5056450;28;20919;-64
2022/05/05 06:42:10;;;;;;;14.70;9.07;;;;;;;;;;5056529;28;20804;-64
2022/05/05 06:44:37;;;;;;;13.97;8.73;;;;;;;;;;5056470;28;20445;-64
2022/05/05 06:47:05;;;;;;;20.40;9.93;;;;;;;;;;5055954;28;20935;-65
2022/05/05 06:49:33;;;;;;;13.30;9.67;;;;;;;;;;5055999;28;20445;-64
2022/05/05 06:52:00;;;;;;;18.20;10.10;;;;;;;;;;5056779;28;20473;-64
2022/05/05 06:54:27;;;;;;;10.53;8.70;;;;;;;;;;5056213;28;20910;-64
2022/05/05 06:56:56;;;;;;;15.00;9.47;;;;;;;;;;5056535;28;20472;-64
2022/05/05 06:59:25;;;;;;;16.20;9.20;;;;;;;;;;5056473;28;20447;-63
2022/05/05 07:01:57;;;;;;;13.27;9.30;;;;;;;;;;5055676;28;20448;-65
2022/05/05 07:07:11;;;;;;;21.37;9.17;;;;;;;;;;5055774;28;20405;-64
2022/05/05 07:12:23;;;;;;;12.83;9.33;;;;;;;;;;5055687;28;20404;-64
2022/05/05 07:14:52;;;;;;;11.07;9.13;;;;;;;;;;5055880;28;20444;-65
2022/05/05 07:17:19;;;;;;;15.20;9.90;;;;;;;;;;5056182;28;20437;-65
2022/05/05 07:19:46;;;;;;;15.50;9.27;;;;;;;;;;5056224;28;20526;-64
2022/05/05 07:22:14;;;;;;;17.03;10.60;;;;;;;;;;5055366;28;20453;-64
2022/05/05 07:24:41;;;;;;;12.93;10.60;;;;;;;;;;5055833;28;20473;-65
2022/05/05 07:27:09;;;;;;;17.70;10.10;;;;;;;;;;5055537;28;20454;-65
2022/05/05 07:29:37;;;;;;;18.47;10.27;;;;;;;;;;5055562;28;20512;-64
2022/05/05 07:32:06;;;;;;;17.03;8.70;;;;;;;;;;5055626;28;20481;-65
2022/05/05 07:34:34;;;;;;;12.90;10.07;;;;;;;;;;5055531;28;20477;-65
2022/05/05 07:37:01;;;;;;;9.10;8.20;;;;;;;;;;5055985;28;20493;-65
2022/05/05 07:39:29;;;;;;;12.73;7.90;;;;;;;;;;5055140;28;20442;-65
2022/05/05 07:41:56;;;;;;;12.47;8.63;;;;;;;;;;5055621;28;20474;-65
2022/05/05 07:44:23;;;;;;;14.03;8.00;;;;;;;;;;5055244;28;20450;-64
2022/05/05 07:46:50;;;;;;;17.07;8.20;;;;;;;;;;5055266;28;20442;-64
2022/05/05 07:49:20;;;;;;;13.97;8.73;;;;;;;;;;5054835;28;20449;-64
2022/05/05 07:51:50;;;;;;;13.07;8.17;;;;;;;;;;5054852;28;20486;-64
2022/05/05 07:54:38;;;;;;;12.27;7.53;;;;;;;;;;5055227;28;20455;-64
2022/05/05 07:57:06;;;;;;;12.97;7.17;;;;;;;;;;5055139;28;20862;-64
2022/05/05 07:59:33;;;;;;;13.37;7.40;;;;;;;;;;5054626;28;20452;-64
2022/05/05 08:02:01;;;;;;;11.47;7.40;;;;;;;;;;5055292;28;20794;-64
2022/05/05 08:04:29;;;;;;;8.77;7.47;;;;;;;;;;5054570;28;20437;-64
2022/05/05 08:06:56;;;;;;;18.43;8.07;;;;;;;;;;5055027;28;20534;-63
2022/05/05 08:09:24;;;;;;;16.17;9.10;;;;;;;;;;5054790;28;20438;-64
2022/05/05 08:11:51;;;;;;;15.20;8.00;;;;;;;;;;5054411;28;21092;-64
2022/05/05 08:14:18;;;;;;;15.43;10.93;;;;;;;;;;5053926;28;20813;-64
2022/05/05 08:16:45;;;;;;;10.27;8.00;;;;;;;;;;5055081;28;20441;-64
2022/05/05 08:19:12;;;;;;;14.80;8.50;;;;;;;;;;5054745;28;20450;-63
2022/05/05 08:21:41;;;;;;;13.53;7.07;;;;;;;;;;5054655;28;20449;-63
2022/05/05 08:29:38;;;;;;;12.90;7.87;;;;;;;;;;5054224;28;20405;-64
2022/05/05 08:32:05;;;;;;;19.67;8.00;;;;;;;;;;5054022;28;20485;-64
2022/05/05 08:34:33;;;;;;;13.63;8.30;;;;;;;;;;5054006;28;20530;-64
2022/05/05 08:37:02;;;;;;;10.53;6.37;;;;;;;;;;5054283;28;20450;-64
2022/05/05 08:39:29;;;;;;;15.93;7.90;;;;;;;;;;5054111;28;20950;-64
2022/05/05 08:41:57;;;;;;;7.70;7.03;;;;;;;;;;5054213;28;20879;-64
2022/05/05 08:44:24;;;;;;;15.03;8.10;;;;;;;;;;5053956;28;20442;-64
2022/05/05 08:46:53;;;;;;;10.80;7.53;;;;;;;;;;5054172;28;20435;-64
2022/05/05 08:49:22;;;;;;;14.83;8.60;;;;;;;;;;5053640;28;20974;-63
2022/05/05 08:51:54;;;;;;;11.70;7.40;;;;;;;;;;5052886;28;20489;-64
2022/05/05 08:54:26;;;;;;;16.20;7.70;;;;;;;;;;5053654;28;20441;-63
2022/05/05 08:56:54;;;;;;;14.47;7.47;;;;;;;;;;5054444;28;20508;-64
2022/05/05 08:59:22;;;;;;;12.23;7.30;;;;;;;;;;5053592;28;20452;-64
2022/05/05 09:01:51;;;;;;;15.07;7.93;;;;;;;;;;5053642;28;20532;-63
2022/05/05 09:04:18;;;;;;;10.63;8.20;;;;;;;;;;5053431;28;20508;-64
2022/05/05 09:06:47;;;;;;;10.70;7.87;;;;;;;;;;5053831;28;20446;-64
2022/05/05 09:09:25;;;;;;;11.67;7.80;;;;;;;;;;5053688;28;20499;-64
2022/05/05 09:12:09;;;;;;;9.00;7.63;;;;;;;;;;5053661;28;20908;-64
2022/05/05 09:14:37;;;;;;;8.33;7.47;;;;;;;;;;5053098;28;20582;-63
2022/05/05 09:17:05;;;;;;;10.57;7.27;;;;;;;;;;5053270;28;20442;-63
2022/05/05 09:19:36;;;;;;;14.40;6.87;;;;;;;;;;5053529;28;20441;-64
2022/05/05 09:22:04;;;;;;;15.33;8.80;;;;;;;;;;5053729;28;20446;-63
2022/05/05 09:24:43;;;;;;;12.00;6.63;;;;;;;;;;5053240;28;20477;-63
2022/05/05 09:27:17;;;;;;;9.07;7.43;;;;;;;;;;5053697;28;20442;-63
2022/05/05 09:29:55;;;;;;;12.03;7.17;;;;;;;;;;5053253;28;20811;-63
2022/05/05 09:32:27;;;;;;;15.43;7.73;;;;;;;;;;5053374;28;20465;-65
2022/05/05 09:34:57;;;;;;;12.87;7.43;;;;;;;;;;5053238;28;20436;-64
2022/05/05 09:37:24;;;;;;;8.37;7.23;;;;;;;;;;5053003;28;20448;-64
2022/05/05 09:39:56;;;;;;;12.43;7.23;;;;;;;;;;5052890;28;20536;-64
2022/05/05 09:42:50;;;;;;;12.00;7.70;;;;;;;;;;5053307;28;20437;-64
2022/05/05 09:45:19;;;;;;;8.77;7.80;;;;;;;;;;4995968;28;20446;-64
2022/05/05 09:47:47;;;;;;;12.40;7.67;;;;;;;;;;5052895;28;20479;-64
2022/05/05 09:50:14;;;;;;;14.63;7.97;;;;;;;;;;5052951;28;20442;-64
2022/05/05 09:58:16;;;;;;;11.40;8.27;;;;;;;;;;5053131;28;20400;-64
2022/05/05 10:00:49;;;;;;;14.67;8.23;;;;;;;;;;5053103;28;20453;-64
2022/05/05 10:06:08;;;;;;;12.20;7.97;;;;;;;;;;5056842;28;20952;-64
2022/05/05 10:08:39;;;;;;;9.10;8.20;;;;;;;;;;5057231;28;20795;-64
2022/05/05 10:11:08;;;;;;;9.17;6.53;;;;;;;;;;5056524;28;20916;-64
2022/05/05 10:13:36;;;;;;;12.50;7.87;;;;;;;;;;5056992;28;20467;-64
2022/05/05 10:16:04;;;;;;;11.03;6.80;;;;;;;;;;5056741;28;20448;-64
2022/05/05 10:18:33;;;;;;;7.13;6.40;;;;;;;;;;5056598;28;20442;-64
2022/05/05 10:21:01;;;;;;;11.50;8.63;;;;;;;;;;5056788;28;20447;-64
2022/05/05 10:23:32;;;;;;;13.80;8.60;;;;;;;;;;5056275;28;21058;-64
2022/05/05 10:26:00;;;;;;;12.43;6.63;;;;;;;;;;5056909;28;20817;-64
2022/05/05 10:28:47;;;;;;;10.40;8.07;;;;;;;;;;5056793;28;20451;-64
2022/05/05 10:31:37;;;;;;;10.20;7.80;;;;;;;;;;5056705;28;20426;-64
2022/05/05 10:34:06;;;;;;;10.43;7.27;;;;;;;;;;5057191;28;20454;-64
2022/05/05 10:36:34;;;;;;;7.53;6.83;;;;;;;;;;5056401;28;20438;-62
2022/05/05 10:39:17;;;;;;;8.07;5.70;;;;;;;;;;5056222;28;20506;-63
2022/05/05 10:41:44;;;;;;;9.80;7.30;;;;;;;;;;5056436;28;20433;-62
2022/05/05 10:44:25;;;;;;;12.17;7.70;;;;;;;;;;5056059;28;20442;-62
2022/05/05 10:47:01;;;;;;;10.20;8.20;;;;;;;;;;5056806;28;20780;-62
2022/05/05 10:49:52;;;;;;;17.70;7.50;;;;;;;;;;5056249;28;20451;-63
2022/05/05 10:52:29;;;;;;;17.00;8.10;;;;;;;;;;5055910;28;20527;-64
2022/05/05 10:54:57;;;;;;;13.30;7.50;;;;;;;;;;5055606;28;20943;-63
2022/05/05 10:57:43;;;;;;;11.53;8.17;;;;;;;;;;5056073;28;20774;-63
2022/05/05 11:00:12;;;;;;;10.20;7.33;;;;;;;;;;5056088;28;20791;-63
2022/05/05 11:02:40;;;;;;;12.63;7.63;;;;;;;;;;5056044;28;20447;-63
2022/05/05 11:05:27;;;;;;;10.07;7.50;;;;;;;;;;5055924;28;20450;-63
2022/05/05 11:07:55;;;;;;;14.43;7.87;;;;;;;;;;5055964;28;20796;-63
2022/05/05 11:10:40;;;;;;;9.13;7.03;;;;;;;;;;5055820;28;20434;-63
2022/05/05 11:13:08;;;;;;;8.83;6.23;;;;;;;;;;5056156;28;20487;-63
2022/05/05 11:21:35;;;;;;;10.27;7.90;;;;;;;;;;5055350;28;20472;-63
2022/05/05 11:24:03;;;;;;;12.27;6.90;;;;;;;;;;5055163;28;20485;-63
2022/05/05 11:26:32;;;;;;;11.60;8.10;;;;;;;;;;5055497;28;20441;-63
2022/05/05 11:28:59;;;;;;;12.40;6.80;;;;;;;;;;5055586;28;20488;-63
2022/05/05 11:31:30;;;;;;;13.30;7.10;;;;;;;;;;5055359;28;20446;-63
2022/05/05 11:33:58;;;;;;;10.87;6.53;;;;;;;;;;5055286;28;20435;-63
2022/05/05 11:36:29;;;;;;;9.23;6.63;;;;;;;;;;5054902;28;20510;-67
2022/05/05 11:38:56;;;;;;;11.97;7.80;;;;;;;;;;5055457;28;20797;-66
2022/05/05 11:41:24;;;;;;;11.47;7.83;;;;;;;;;;5055027;28;20475;-64
2022/05/05 11:46:38;;;;;;;9.73;6.40;;;;;;;;;;5055071;28;20473;-66
2022/05/05 11:49:06;;;;;;;14.03;6.77;;;;;;;;;;5054912;28;20958;-64
2022/05/05 11:51:34;;;;;;;13.07;6.90;;;;;;;;;;5054501;28;20497;-64
2022/05/05 11:54:06;;;;;;;10.03;6.70;;;;;;;;;;5054326;28;20454;-66
2022/05/05 11:56:33;;;;;;;10.17;8.17;;;;;;;;;;5054508;28;20899;-64
2022/05/05 12:02:00;;;;;;;8.30;7.03;;;;;;;;;;5023549;28;20959;-66
2022/05/05 12:04:27;;;;;;;12.10;6.57;;;;;;;;;;5054609;28;20434;-65
2022/05/05 12:06:54;;;;;;;7.47;6.67;;;;;;;;;;5054392;28;20511;-65
2022/05/05 12:09:22;;;;;;;6.57;5.53;;;;;;;;;;5055022;28;20439;-65
2022/05/05 12:11:50;;;;;;;7.40;6.30;;;;;;;;;;5054505;28;20482;-65
2022/05/05 12:14:22;;;;;;;13.53;7.23;;;;;;;;;;5054668;28;20441;-65
2022/05/05 12:16:50;;;;;;;9.93;7.40;;;;;;;;;;5055004;28;20430;-65
2022/05/05 12:19:21;;;;;;;11.97;7.53;;;;;;;;;;5054361;28;20503;-65
2022/05/05 12:21:53;;;;;;;8.20;6.60;;;;;;;;;;5054483;28;20442;-65
2022/05/05 12:24:22;;;;;;;8.00;6.40;;;;;;;;;;5054205;28;20481;-65
2022/05/05 12:26:49;;;;;;;13.30;6.87;;;;;;;;;;5054131;28;20533;-64
2022/05/05 12:29:19;;;;;;;7.50;6.20;;;;;;;;;;5054901;28;20493;-65
2022/05/05 12:31:54;;;;;;;7.40;4.93;;;;;;;;;;5054202;28;20444;-65
2022/05/05 12:34:25;;;;;;;10.40;7.23;;;;;;;;;;5054341;28;20441;-65
2022/05/05 12:37:07;;;;;;;8.23;7.40;;;;;;;;;;5051004;28;20438;-65
2022/05/05 12:39:34;;;;;;;7.97;5.93;;;;;;;;;;5034486;28;20435;-64
2022/05/05 12:42:02;;;;;;;9.00;6.07;;;;;;;;;;5034147;28;20529;-64
2022/05/05 12:44:33;;;;;;;8.70;5.50;;;;;;;;;;5034255;28;20450;-65
2022/05/05 12:47:04;;;;;;;10.80;7.57;;;;;;;;;;5034381;28;20447;-65
2022/05/05 12:49:36;;;;;;;11.90;5.90;;;;;;;;;;5034129;28;20443;-66
2022/05/05 12:52:03;;;;;;;9.00;6.80;;;;;;;;;;5033885;28;20979;-65
2022/05/05 13:00:00;;;;;;;6.67;5.70;;;;;;;;;;5034019;28;20534;-65
2022/05/05 13:02:27;;;;;;;8.90;6.30;;;;;;;;;;5033379;28;21038;-65
2022/05/05 13:04:56;;;;;;;10.50;5.60;;;;;;;;;;5033922;28;20454;-65
2022/05/05 13:07:24;;;;;;;9.23;5.07;;;;;;;;;;5033713;28;20456;-65
2022/05/05 13:09:52;;;;;;;7.03;5.77;;;;;;;;;;5034643;28;20478;-65
2022/05/05 13:12:19;;;;;;;8.13;5.70;;;;;;;;;;5033301;28;20479;-65
2022/05/05 13:14:46;;;;;;;8.90;5.73;;;;;;;;;;5033424;28;20457;-65
2022/05/05 13:17:14;;;;;;;6.10;5.50;;;;;;;;;;5033810;28;20439;-65
2022/05/05 13:19:42;;;;;;;7.80;5.33;;;;;;;;;;5033914;28;20513;-65
2022/05/05 13:22:10;;;;;;;6.00;4.70;;;;;;;;;;5032860;28;20814;-65
2022/05/05 13:24:38;;;;;;;6.07;4.73;;;;;;;;;;5033325;28;20473;-65
2022/05/05 13:27:05;;;;;;;6.63;4.70;;;;;;;;;;5033205;28;20447;-65
2022/05/05 13:29:32;;;;;;;6.43;4.33;;;;;;;;;;5033613;28;20906;-65
2022/05/05 13:31:59;;;;;;;7.23;4.57;;;;;;;;;;5033303;28;20459;-65
2022/05/05 13:34:27;;;;;;;4.67;4.27;;;;;;;;;;5034130;28;20442;-65
2022/05/05 13:36:54;;;;;;;7.60;4.20;;;;;;;;;;5033904;28;20445;-65
2022/05/05 13:39:22;;;;;;;8.20;4.03;;;;;;;;;;5033710;28;20440;-65
2022/05/05 13:41:52;;;;;;;2.80;2.53;;;;;;;;;;5032917;28;20459;-65
2022/05/05 13:44:20;;;;;;;4.60;3.30;;;;;;;;;;5033353;28;20808;-65
2022/05/05 13:46:47;;;;;;;6.37;3.60;;;;;;;;;;5032990;28;20503;-65
2022/05/05 13:49:15;;;;;;;6.03;3.53;;;;;;;;;;5032600;28;20883;-65
2022/05/05 13:51:42;;;;;;;3.23;2.93;;;;;;;;;;5032768;28;20468;-65
2022/05/05 13:54:09;;;;;;;5.57;3.00;;;;;;;;;;5032820;28;20851;-64
2022/05/05 13:56:38;;;;;;;7.10;3.20;;;;;;;;;;5033114;28;20496;-65
2022/05/05 13:59:05;;;;;;;4.43;2.87;;;;;;;;;;5032399;28;20439;-65
2022/05/05 14:01:32;;;;;;;7.10;4.00;;;;;;;;;;5032710;28;20960;-65
2022/05/05 14:03:59;;;;;;;3.40;2.60;;;;;;;;;;5033315;28;20772;-65
2022/05/05 14:06:28;;;;;;;4.90;3.23;;;;;;;;;;5033251;28;20445;-64
2022/05/05 14:14:26;;;;;;;2.67;2.30;;;;;;;;;;5032790;28;20496;-64
2022/05/05 14:16:53;;;;;;;4.10;3.30;;;;;;;;;;5032604;28;20962;-65
2022/05/05 14:19:21;;;;;;;6.83;3.50;;;;;;;;;;5033156;28;20450;-65
2022/05/05 14:21:48;;;;;;;11.30;3.00;;;;;;;;;;5032820;28;20445;-66
2022/05/05 14:24:15;;;;;;;5.80;3.50;;;;;;;;;;5032437;28;20470;-65
2022/05/05 14:26:45;;;;;;;6.40;3.47;;;;;;;;;;5033176;28;20468;-65
2022/05/05 14:29:13;;;;;;;5.20;3.13;;;;;;;;;;5033032;28;20437;-65
2022/05/05 14:31:40;;;;;;;5.30;3.77;;;;;;;;;;5032750;28;20436;-65
2022/05/05 14:34:09;;;;;;;5.90;2.93;;;;;;;;;;5032640;28;20473;-65
2022/05/05 14:36:36;;;;;;;6.77;3.80;;;;;;;;;;5032815;28;20879;-65
2022/05/05 14:39:04;;;;;;;9.87;4.67;;;;;;;;;;5032996;28;20539;-65
2022/05/05 14:41:31;;;;;;;9.27;6.00;;;;;;;;;;5033047;28;20448;-66
2022/05/05 14:44:01;;;;;;;4.27;3.30;;;;;;;;;;5033061;28;20452;-66
2022/05/05 14:46:29;;;;;;;6.50;4.20;;;;;;;;;;5032711;28;20430;-65
2022/05/05 14:48:56;;;;;;;4.60;3.23;;;;;;;;;;5032487;28;20503;-65
2022/05/05 14:51:23;;;;;;;5.43;3.47;;;;;;;;;;5035539;28;20443;-65
2022/05/05 14:53:50;;;;;;;5.07;3.50;;;;;;;;;;5036037;28;20514;-66
2022/05/05 14:56:18;;;;;;;6.17;3.00;;;;;;;;;;5036203;28;20447;-66
2022/05/05 14:58:45;;;;;;;10.73;4.00;;;;;;;;;;5036056;28;20443;-66
2022/05/05 15:01:13;;;;;;;7.40;3.53;;;;;;;;;;5036101;28;20484;-66
2022/05/05 15:03:41;;;;;;;7.90;4.03;;;;;;;;;;5036031;28;20450;-66
2022/05/05 15:06:08;;;;;;;10.53;3.70;;;;;;;;;;5035718;28;20455;-66
2022/05/05 15:08:36;;;;;;;5.40;3.03;;;;;;;;;;5035961;28;20445;-66
2022/05/05 15:11:03;;;;;;;4.03;3.63;;;;;;;;;;5036004;28;20440;-66
2022/05/05 15:13:30;;;;;;;9.17;4.03;;;;;;;;;;5036163;28;20582;-66
2022/05/05 15:15:57;;;;;;;5.53;3.10;;;;;;;;;;5036176;28;20456;-66
2022/05/05 15:18:26;;;;;;;4.20;2.90;;;;;;;;;;5035755;28;20453;-66
2022/05/05 15:20:53;;;;;;;3.87;2.70;;;;;;;;;;5036058;28;20437;-66
2022/05/05 15:23:22;;;;;;;3.47;2.40;;;;;;;;;;5035524;28;20572;-66
2022/05/05 15:25:49;;;;;;;9.80;3.80;;;;;;;;;;5035508;28;20431;-66
2022/05/05 15:28:16;;;;;;;4.97;3.43;;;;;;;;;;5035660;28;20451;-66
2022/05/05 15:30:43;;;;;;;13.93;3.37;;;;;;;;;;5035581;28;20446;-66
2022/05/05 15:33:11;;;;;;;5.50;3.37;;;;;;;;;;5035634;28;20482;-65
2022/05/05 15:35:39;;;;;;;3.23;2.93;;;;;;;;;;5035194;28;20446;-66